| time (UTC) | temp F | wind direction | speed MPH | gust MPH | rain 1hr in | rain 24hr in | rain mn in | humidity % | barometer mb |
| 20260508134559 | 58 | 150 | 2.0 | 4.0 | 0.00 | 0.08 | 0.00 | 54 | 1018.3 |
| 20260508133101 | 57 | 150 | 3.0 | 6.0 | 0.00 | 0.08 | 0.00 | 56 | 1018.4 |
| 20260508131558 | 57 | 150 | 1.0 | 5.0 | 0.00 | 0.08 | 0.00 | 59 | 1018.1 |
| 20260508124558 | 54 | 150 | 0.0 | 2.0 | 0.00 | 0.18 | 0.00 | 70 | 1017.9 |
| 20260508123057 | 53 | 150 | 0.0 | 3.0 | 0.00 | 0.18 | 0.00 | 74 | 1017.9 |
| 20260508121607 | 51 | 150 | 0.0 | 3.0 | 0.00 | 0.18 | 0.00 | 77 | 1017.9 |
| 20260508120057 | 49 | 150 | 0.0 | 2.0 | 0.00 | 0.18 | 0.00 | 82 | 1017.5 |
| 20260508114559 | 48 | 150 | 1.0 | 4.0 | 0.00 | 0.25 | 0.00 | 84 | 1017.4 |
| 20260508113107 | 47 | 150 | 0.0 | 2.0 | 0.00 | 0.25 | 0.00 | 86 | 1017.0 |
| 20260508111609 | 46 | 150 | 0.0 | 1.0 | 0.00 | 0.25 | 0.00 | 88 | 1017.0 |
| 20260508104558 | 43 | 150 | 0.0 | 2.0 | 0.00 | 0.25 | 0.00 | 94 | 1016.5 |
| 20260508103112 | 43 | 150 | 1.0 | 3.0 | 0.00 | 0.25 | 0.00 | 94 | 1016.2 |
| 20260508101559 | 43 | 150 | 0.0 | 2.0 | 0.00 | 0.25 | 0.00 | 95 | 1016.1 |
| 20260508100058 | 43 | 150 | 1.0 | 3.0 | 0.00 | 0.25 | 0.00 | 95 | 1016.0 |
| 20260508094609 | 43 | 0 | 0.0 | 0.0 | 0.00 | 0.25 | 0.00 | 94 | 1015.8 |
| 20260508093059 | 43 | 150 | 0.0 | 3.0 | 0.00 | 0.25 | 0.00 | 94 | 1015.7 |
| 20260508091605 | 44 | 150 | 1.0 | 3.0 | 0.00 | 0.25 | 0.00 | 94 | 1015.7 |
| 20260508090058 | 44 | 0 | 0.0 | 0.0 | 0.00 | 0.25 | 0.00 | 94 | 1015.5 |
| 20260508084559 | 44 | 0 | 0.0 | 0.0 | 0.00 | 0.26 | 0.00 | 93 | 1015.4 |
| 20260508083144 | 44 | 0 | 0.0 | 1.0 | 0.00 | 0.26 | 0.00 | 94 | 1015.4 |
| 20260508081603 | 44 | 0 | 0.0 | 0.0 | 0.00 | 0.26 | 0.00 | 94 | 1015.3 |
| 20260508074600 | 45 | 0 | 0.0 | 0.0 | 0.00 | 0.26 | 0.00 | 93 | 1015.0 |
| 20260508073100 | 45 | 0 | 0.0 | 0.0 | 0.00 | 0.26 | 0.00 | 93 | 1015.0 |
| 20260508071558 | 45 | 150 | 0.0 | 0.0 | 0.00 | 0.26 | 0.00 | 93 | 1014.9 |
| 20260508070100 | 46 | 0 | 0.0 | 1.0 | 0.00 | 0.26 | 0.00 | 93 | 1014.8 |
| 20260508064609 | 46 | 150 | 0.0 | 1.0 | 0.00 | 0.26 | 0.00 | 93 | 1014.8 |
| 20260508063058 | 46 | 0 | 0.0 | 0.0 | 0.00 | 0.26 | 0.00 | 93 | 1014.7 |
| 20260508061603 | 46 | 0 | 0.0 | 0.0 | 0.00 | 0.26 | 0.00 | 93 | 1014.5 |
| 20260508060107 | 46 | 0 | 0.0 | 0.0 | 0.00 | 0.26 | 0.00 | 93 | 1014.7 |
| 20260508054605 | 46 | 0 | 0.0 | 0.0 | 0.00 | 0.28 | 0.00 | 92 | 1014.6 |
| 20260508053105 | 46 | 0 | 0.0 | 0.0 | 0.00 | 0.28 | 0.00 | 92 | 1014.5 |
| 20260508051557 | 47 | 0 | 0.0 | 0.0 | 0.00 | 0.28 | 0.00 | 91 | 1014.5 |
| 20260508050100 | 47 | 0 | 0.0 | 0.0 | 0.00 | 0.28 | 0.00 | 91 | 1014.3 |
| 20260508044559 | 47 | 0 | 0.0 | 0.0 | 0.00 | 0.31 | 0.00 | 91 | 1014.2 |
| 20260508043059 | 48 | 0 | 0.0 | 0.0 | 0.00 | 0.31 | 0.00 | 90 | 1014.3 |
| 20260508041604 | 48 | 0 | 0.0 | 0.0 | 0.00 | 0.31 | 0.00 | 89 | 1014.1 |
| 20260508040113 | 49 | 0 | 0.0 | 5.0 | 0.00 | 0.31 | 0.00 | 88 | 1014.2 |
| 20260508034558 | 49 | 0 | 0.0 | 0.0 | 0.00 | 0.31 | 0.31 | 87 | 1014.1 |
| 20260508033102 | 50 | 0 | 0.0 | 0.0 | 0.00 | 0.31 | 0.31 | 87 | 1014.1 |
| 20260508031604 | 50 | 0 | 0.0 | 0.0 | 0.00 | 0.31 | 0.31 | 86 | 1014.0 |
| 20260508030122 | 50 | 150 | 1.0 | 1.0 | 0.00 | 0.31 | 0.31 | 87 | 1014.0 |
| 20260508024605 | 51 | 0 | 0.0 | 0.0 | 0.00 | 0.36 | 0.31 | 86 | 1013.7 |
| 20260508023100 | 52 | 0 | 0.0 | 0.0 | 0.00 | 0.36 | 0.31 | 84 | 1013.6 |
| 20260508021600 | 53 | 0 | 0.0 | 1.0 | 0.00 | 0.36 | 0.31 | 82 | 1013.5 |
| 20260508020058 | 53 | 0 | 0.0 | 0.0 | 0.00 | 0.36 | 0.31 | 80 | 1013.2 |
| 20260508014557 | 55 | 0 | 0.0 | 0.0 | 0.00 | 0.39 | 0.31 | 77 | 1012.8 |
| 20260508013058 | 55 | 0 | 0.0 | 0.0 | 0.00 | 0.39 | 0.31 | 75 | 1012.7 |
| 20260508011610 | 56 | 0 | 0.0 | 0.0 | 0.00 | 0.39 | 0.31 | 71 | 1012.3 |
| 20260508010107 | 58 | 0 | 0.0 | 2.0 | 0.00 | 0.39 | 0.31 | 68 | 1012.2 |
| 20260508004604 | 58 | 150 | 1.0 | 5.0 | 0.00 | 0.44 | 0.31 | 66 | 1011.8 |
| 20260508003111 | 59 | 150 | 2.0 | 6.0 | 0.00 | 0.44 | 0.31 | 66 | 1011.7 |
| 20260508001557 | 60 | 150 | 2.0 | 6.0 | 0.00 | 0.44 | 0.31 | 65 | 1011.5 |
| 20260508000057 | 61 | 150 | 3.0 | 10.0 | 0.00 | 0.44 | 0.31 | 64 | 1011.6 |
| 20260507234559 | 62 | 150 | 3.0 | 12.0 | 0.00 | 0.45 | 0.31 | 68 | 1011.4 |
| 20260507233059 | 62 | 150 | 2.0 | 5.0 | 0.00 | 0.45 | 0.31 | 78 | 1011.3 |
| 20260507231613 | 62 | 150 | 0.0 | 4.0 | 0.00 | 0.45 | 0.31 | 85 | 1011.0 |
| 20260507230059 | 62 | 0 | 2.0 | 5.0 | 0.00 | 0.45 | 0.31 | 85 | 1010.8 |
| 20260507224607 | 62 | 150 | 2.0 | 7.0 | 0.00 | 0.45 | 0.31 | 84 | 1010.4 |
| 20260507223100 | 63 | 150 | 2.0 | 7.0 | 0.00 | 0.45 | 0.31 | 84 | 1010.1 |
| 20260507221600 | 63 | 150 | 4.0 | 10.0 | 0.00 | 0.45 | 0.31 | 83 | 1010.0 |
| 20260507220101 | 63 | 150 | 7.0 | 12.0 | 0.00 | 0.45 | 0.31 | 83 | 1009.6 |
| 20260507214610 | 62 | 150 | 5.0 | 12.0 | 0.00 | 0.45 | 0.31 | 86 | 1009.6 |
| 20260507213109 | 62 | 150 | 5.0 | 11.0 | 0.00 | 0.45 | 0.31 | 85 | 1009.4 |
| 20260507211558 | 62 | 150 | 4.0 | 11.0 | 0.00 | 0.45 | 0.31 | 87 | 1009.4 |
| 20260507210100 | 62 | 150 | 6.0 | 16.0 | 0.00 | 0.45 | 0.31 | 86 | 1009.3 |
| 20260507204607 | 62 | 150 | 8.0 | 16.0 | 0.00 | 0.45 | 0.31 | 86 | 1009.1 |
| 20260507203100 | 62 | 150 | 6.0 | 18.0 | 0.00 | 0.45 | 0.31 | 86 | 1008.9 |
| 20260507201610 | 63 | 150 | 8.0 | 15.0 | 0.00 | 0.45 | 0.31 | 88 | 1008.6 |
| 20260507200058 | 63 | 150 | 10.0 | 18.0 | 0.01 | 0.45 | 0.31 | 89 | 1008.8 |
| 20260507194558 | 63 | 150 | 5.0 | 15.0 | 0.07 | 0.45 | 0.31 | 91 | 1008.5 |
| 20260507193110 | 63 | 150 | 5.0 | 13.0 | 0.08 | 0.45 | 0.31 | 90 | 1008.7 |
| 20260507191609 | 65 | 150 | 7.0 | 16.0 | 0.08 | 0.45 | 0.31 | 88 | 1008.7 |
| 20260507190104 | 70 | 0 | 0.0 | 5.0 | 0.07 | 0.44 | 0.30 | 81 | 1008.0 |
| 20260507184559 | 72 | 150 | 1.0 | 10.0 | 0.01 | 0.38 | 0.24 | 76 | 1008.1 |
| 20260507183100 | 73 | 150 | 7.0 | 10.0 | 0.00 | 0.37 | 0.23 | 74 | 1007.9 |
| 20260507181557 | 72 | 150 | 4.0 | 12.0 | 0.00 | 0.37 | 0.23 | 75 | 1008.3 |
| 20260507180105 | 73 | 150 | 6.0 | 11.0 | 0.00 | 0.37 | 0.23 | 72 | 1008.3 |
| 20260507174559 | 72 | 150 | 3.0 | 10.0 | 0.00 | 0.38 | 0.23 | 75 | 1008.4 |
| 20260507173058 | 71 | 150 | 4.0 | 9.0 | 0.00 | 0.38 | 0.23 | 78 | 1008.4 |
| 20260507171604 | 71 | 150 | 3.0 | 11.0 | 0.00 | 0.38 | 0.23 | 75 | 1008.6 |
| 20260507170100 | 71 | 150 | 4.0 | 11.0 | 0.00 | 0.38 | 0.23 | 77 | 1008.8 |
| 20260507164559 | 70 | 150 | 5.0 | 8.0 | 0.00 | 0.40 | 0.23 | 80 | 1009.2 |
| 20260507163057 | 69 | 0 | 1.0 | 6.0 | 0.00 | 0.40 | 0.23 | 82 | 1009.3 |
| 20260507161605 | 68 | 150 | 2.0 | 5.0 | 0.00 | 0.40 | 0.23 | 85 | 1009.5 |
| 20260507160104 | 67 | 150 | 1.0 | 3.0 | 0.00 | 0.40 | 0.23 | 87 | 1009.2 |
| 20260507154559 | 66 | 0 | 0.0 | 2.0 | 0.00 | 0.42 | 0.23 | 90 | 1009.0 |
| 20260507153100 | 65 | 150 | 3.0 | 7.0 | 0.00 | 0.42 | 0.23 | 91 | 1009.2 |
| 20260507151656 | 65 | 150 | 3.0 | 7.0 | 0.00 | 0.42 | 0.23 | 93 | 1009.7 |
| 20260507150100 | 65 | 150 | 0.0 | 5.0 | 0.00 | 0.42 | 0.23 | 95 | 1009.6 |
| 20260507144559 | 64 | 150 | 0.0 | 3.0 | 0.00 | 0.42 | 0.23 | 96 | 1010.1 |
| 20260507143102 | 64 | 150 | 2.0 | 4.0 | 0.00 | 0.42 | 0.23 | 96 | 1009.9 |
| 20260507141606 | 63 | 150 | 0.0 | 2.0 | 0.00 | 0.42 | 0.23 | 97 | 1010.1 |
| 20260507140121 | 63 | 150 | 1.0 | 3.0 | 0.00 | 0.42 | 0.23 | 97 | 1009.6 |